Mc Guire Air Force Base
KWRI : now visible

Airfield :











YOU CAN JOIN US ON...

 
LOGIN :

Register | Disclaimer

   EN    FR    IT 

 









Legend :    VFR   Marginal VFR   IFR   Intensive IFR   Very Intensive IFR
Visi :
Ceiling :
>= 8 km
>= 3000ft
5 to 8 km
1000 to 3000 ft
1500m to 5 km
500 to 1000 ft
800 to 1500m
200 to 500 ft
< 800m
< 200 ft
Symbols :   Thunderstorms  Fog  Heavy snow  Heavy precipitations  Wind > 20 kt






- Airport Elevation : 131 ft
- IATA code : WRI


KWRI - Mc Guire Air Force Base

CURRENT METAR :
  • 212356Z AUTO 11003KT 10SM OVC026 15/11 A3010 RMK AO2 SLP193 T01520106 10209 20152 50009

EXPIRED METARs :
  • 212256Z AUTO 11005KT 10SM OVC025 15/11 A3007 RMK AO2 SLP183 T01530109
  • 212206Z AUTO 11005KT 10SM OVC029 16/11 A3008 RMK AO2 SLP186
  • 212156Z 10005KT 10SM BKN030 BKN250 17/11 A3008 RMK AO2A SLP186 T01670105

TAF TAF KWRI
Valid from the 21 at 18:00 until the 23 at 00:00 UTC


211800Z 2118/2224 05007KT 9999 FEW230 QNH3004INS
BECMG 2122/2123 VRB04KT 9999 SCT040 QNH3009INS
BECMG 2205/2206 08005KT 9999 BKN030 QNH3007INS
BECMG 2209/2210 08007KT 9999 BKN005 OVC010 QNH2981INS
TEMPO 2214/2217 8000 -SHRA
BECMG 2222/2223 12010KT 8000 SHRA OVC005 QNH2982INS TX19/2119Z TN11/2210Z



MET'MAP, your aeronautical weather chart ! - Copyright ORBIFLY December 2007 - Disclaimer

ORBIFLY MET'MAP TEAM :

Programming & Development : Alexandra Zaïnal
Concept & Development : Baudouin d'Aumeries
Co-Development & Prog : Marc-Olivier Méhu
Technical & hardware support : Manuel Goepfert

Contact : metmap@orbifly.com




SOURCES & CREDITS :

   NOAA       Earth
Advisory